Burnet's Hourly Summary for Wednesday, July 11, 2018
Hour Temp
(f)
RH
(%)
Solar Rad.
(MJ/m2)
Rainfall
(in)
Wind
(mph)
7/11/2018 12:00 AM 79 67 0 0 0.58
7/11/2018 1:00 AM 79 76 0 0 2.71
7/11/2018 2:00 AM 77 81 0 0 1.35
7/11/2018 3:00 AM 75 85 0 0 1
7/11/2018 4:00 AM 74 85 0 0 1.61
7/11/2018 5:00 AM 73 92 0 0 0.67
7/11/2018 6:00 AM 72 94 0 0 0.48
7/11/2018 7:00 AM 73 94 0.01 0 0.46
7/11/2018 8:00 AM 77 89 0.3 0 1.11
7/11/2018 9:00 AM 80 79 0.94 0 2.82
7/11/2018 10:00 AM 84 67 1.62 0 4.02
7/11/2018 11:00 AM 86 54 2.22 0 4.38
7/11/2018 12:00 PM 89 45 2.69 0 4.48
7/11/2018 1:00 PM 91 41 3.06 0 5.06
7/11/2018 2:00 PM 92 38 3.23 0 5.27
7/11/2018 3:00 PM 93 35 2.06 0 5.08
7/11/2018 4:00 PM 93 33 2.18 0 5.42
7/11/2018 5:00 PM 94 33 1.49 0 5.4
7/11/2018 6:00 PM 94 37 2 0 5.43
7/11/2018 7:00 PM 93 39 1.3 0 6
7/11/2018 8:00 PM 91 44 0.55 0 5.89
7/11/2018 9:00 PM 88 49 0.04 0 5.02
7/11/2018 10:00 PM 85 55 0 0 2.15
7/11/2018 11:00 PM 82 59 0 0 0.78
Data Summary 83 61 23.69 0.00 3.22